Time;durP1;ratioP1;P1;durP2;ratioP2;P2;SDS_P1;SDS_P2;PMS_P1;PMS_P2;Temp;Humidity;BMP_temperature;BMP_pressure;BME280_temperature;BME280_humidity;BME280_pressure;Samples;Min_cycle;Max_cycle;Signal;HPM_P1;HPM_P2
2022/08/06 00:02:15;;;;;;;;;;;15.20;83.40;;;;;;5068822;28;19954;-65
2022/08/06 00:04:41;;;;;;;;;;;15.20;84.50;;;;;;5082002;28;20015;-65
2022/08/06 00:07:07;;;;;;;;;;;15.00;83.70;;;;;;5087796;28;20934;-64
2022/08/06 00:09:32;;;;;;;;;;;14.80;85.70;;;;;;5090012;28;19927;-65
2022/08/06 00:12:02;;;;;;;;;;;14.70;87.90;;;;;;5088181;28;19912;-65
2022/08/06 00:14:28;;;;;;;;;;;14.70;86.00;;;;;;5089751;28;19955;-65
2022/08/06 00:16:54;;;;;;;;;;;14.60;86.60;;;;;;5092034;28;19971;-65
2022/08/06 00:19:19;;;;;;;;;;;14.70;86.80;;;;;;5094005;28;19912;-66
2022/08/06 00:21:45;;;;;;;;;;;14.70;85.70;;;;;;5077212;28;19930;-65
2022/08/06 00:24:10;;;;;;;;;;;14.80;86.20;;;;;;5089503;28;19923;-65
2022/08/06 00:26:37;;;;;;;;;;;14.80;86.00;;;;;;5090762;28;20513;-66
2022/08/06 00:29:03;;;;;;;;;;;14.60;86.40;;;;;;5092997;28;20379;-65
2022/08/06 00:31:29;;;;;;;;;;;14.50;87.20;;;;;;5093597;28;20336;-65
2022/08/06 00:33:55;;;;;;;;;;;14.40;87.30;;;;;;5089590;28;19920;-65
2022/08/06 00:36:25;;;;;;;;;;;14.30;88.20;;;;;;5095547;28;19968;-66
2022/08/06 00:38:51;;;;;;;;;;;14.30;87.80;;;;;;5077363;28;20269;-66
2022/08/06 00:41:16;;;;;;;;;;;14.40;86.20;;;;;;5091160;28;20330;-65
2022/08/06 00:43:42;;;;;;;;;;;14.30;87.20;;;;;;5083770;28;19926;-65
2022/08/06 00:46:08;;;;;;;;;;;14.20;88.80;;;;;;5085764;28;20298;-66
2022/08/06 00:48:33;;;;;;;;;;;14.10;91.30;;;;;;5090145;28;20282;-64
2022/08/06 00:50:59;;;;;;;;;;;14.00;92.20;;;;;;5078046;28;19954;-65
2022/08/06 00:53:24;;;;;;;;;;;13.80;93.30;;;;;;5088701;28;20370;-65
2022/08/06 00:55:50;;;;;;;;;;;13.70;94.40;;;;;;5093446;28;20015;-65
2022/08/06 00:58:16;;;;;;;;;;;13.70;95.60;;;;;;5092101;28;19928;-65
2022/08/06 01:00:41;;;;;;;;;;;13.70;96.80;;;;;;5090208;28;20534;-65
2022/08/06 01:03:07;;;;;;;;;;;13.70;96.40;;;;;;5088479;28;19916;-65
2022/08/06 01:05:33;;;;;;;;;;;13.80;95.70;;;;;;5094732;28;20002;-65
2022/08/06 01:07:58;;;;;;;;;;;14.00;95.30;;;;;;5094567;28;19994;-65
2022/08/06 01:10:24;;;;;;;;;;;14.00;94.90;;;;;;5075322;28;19919;-65
2022/08/06 01:12:49;;;;;;;;;;;14.10;93.70;;;;;;5091004;28;20290;-65
2022/08/06 01:15:15;;;;;;;;;;;13.90;93.30;;;;;;5089815;28;20338;-64
2022/08/06 01:17:40;;;;;;;;;;;13.60;94.80;;;;;;5094860;28;19928;-65
2022/08/06 01:20:06;;;;;;;;;;;13.40;95.80;;;;;;5086379;28;19912;-65
2022/08/06 01:22:34;;;;;;;;;;;13.40;96.60;;;;;;5088006;28;19912;-65
2022/08/06 01:25:19;;;;;;;;;;;13.30;98.70;;;;;;5097478;28;20457;-65
2022/08/06 01:27:50;;;;;;;;;;;13.20;99.90;;;;;;5096190;28;20003;-65
2022/08/06 01:30:19;;;;;;;;;;;13.10;99.90;;;;;;5093643;28;19912;-64
2022/08/06 01:32:53;;;;;;;;;;;13.10;99.90;;;;;;5093276;28;19988;-65
2022/08/06 01:35:26;;;;;;;;;;;13.00;99.90;;;;;;5093049;28;20419;-64
2022/08/06 01:37:54;;;;;;;;;;;13.00;99.90;;;;;;5087900;28;19924;-65
2022/08/06 01:40:23;;;;;;;;;;;13.00;99.90;;;;;;5091331;28;19961;-65
2022/08/06 01:42:49;;;;;;;;;;;13.00;99.90;;;;;;5096355;28;19916;-65
2022/08/06 01:45:17;;;;;;;;;;;13.10;99.90;;;;;;5094342;28;20362;-65
2022/08/06 01:47:45;;;;;;;;;;;13.10;99.90;;;;;;5097966;28;20309;-65
2022/08/06 01:50:11;;;;;;;;;;;12.90;99.90;;;;;;5090622;28;19916;-65
2022/08/06 01:52:38;;;;;;;;;;;12.90;99.90;;;;;;5090684;28;20013;-65
2022/08/06 01:55:14;;;;;;;;;;;12.80;99.90;;;;;;5088219;28;20397;-65
2022/08/06 01:57:43;;;;;;;;;;;12.80;99.90;;;;;;5092046;28;19920;-65
2022/08/06 02:00:09;;;;;;;;;;;12.70;99.90;;;;;;5091595;28;19923;-66
2022/08/06 02:02:35;;;;;;;;;;;12.70;99.90;;;;;;5095449;28;19917;-64
2022/08/06 02:05:01;;;;;;;;;;;12.50;99.90;;;;;;5095410;28;19912;-65
2022/08/06 02:07:30;;;;;;;;;;;12.40;99.90;;;;;;5091950;28;19920;-65
2022/08/06 02:09:57;;;;;;;;;;;12.40;99.90;;;;;;5097390;28;20007;-65
2022/08/06 02:12:24;;;;;;;;;;;12.20;99.90;;;;;;5091551;28;19920;-65
2022/08/06 02:14:55;;;;;;;;;;;12.20;99.90;;;;;;5087041;28;19912;-65
2022/08/06 02:17:24;;;;;;;;;;;12.20;99.90;;;;;;5090176;28;19924;-65
2022/08/06 02:19:50;;;;;;;;;;;12.10;99.90;;;;;;5090202;28;20286;-65
2022/08/06 02:22:19;;;;;;;;;;;12.20;99.90;;;;;;5090795;28;19975;-66
2022/08/06 02:24:50;;;;;;;;;;;12.10;99.90;;;;;;5087679;28;19985;-64
2022/08/06 02:27:17;;;;;;;;;;;12.00;99.90;;;;;;5093164;28;20294;-65
2022/08/06 02:29:44;;;;;;;;;;;11.90;99.90;;;;;;5088324;28;19919;-65
2022/08/06 02:32:11;;;;;;;;;;;12.10;99.90;;;;;;5089916;28;20528;-64
2022/08/06 02:34:36;;;;;;;;;;;11.90;99.90;;;;;;5089559;28;19920;-65
2022/08/06 02:37:07;;;;;;;;;;;12.10;99.90;;;;;;5091020;28;19968;-65
2022/08/06 02:39:37;;;;;;;;;;;12.00;99.90;;;;;;5089748;28;20006;-65
2022/08/06 02:42:11;;;;;;;;;;;11.90;99.90;;;;;;5088984;28;19912;-65
2022/08/06 02:44:57;;;;;;;;;;;11.80;99.90;;;;;;5086442;28;20339;-64
2022/08/06 02:47:30;;;;;;;;;;;11.70;99.90;;;;;;5090526;28;20007;-66
2022/08/06 02:49:57;;;;;;;;;;;11.60;99.90;;;;;;5087481;28;19916;-64
2022/08/06 02:52:29;;;;;;;;;;;11.60;99.90;;;;;;5091405;28;20722;-65
2022/08/06 02:55:02;;;;;;;;;;;11.60;99.90;;;;;;5090650;28;19954;-65
2022/08/06 02:57:33;;;;;;;;;;;11.60;99.90;;;;;;5087565;28;20371;-65
2022/08/06 03:00:02;;;;;;;;;;;11.50;99.90;;;;;;5089521;28;20293;-65
2022/08/06 03:02:28;;;;;;;;;;;11.50;99.90;;;;;;5069303;28;19999;-65
2022/08/06 03:04:55;;;;;;;;;;;11.30;99.90;;;;;;5089537;28;19969;-65
2022/08/06 03:07:24;;;;;;;;;;;11.30;99.90;;;;;;5095045;28;20603;-65
2022/08/06 03:09:50;;;;;;;;;;;11.20;99.90;;;;;;5091653;28;22072;-65
2022/08/06 03:12:16;;;;;;;;;;;11.10;99.90;;;;;;5092076;28;19912;-65
2022/08/06 03:14:42;;;;;;;;;;;11.10;99.90;;;;;;5070388;28;19998;-65
2022/08/06 03:17:10;;;;;;;;;;;11.10;99.90;;;;;;5094710;28;19919;-65
2022/08/06 03:19:37;;;;;;;;;;;11.10;99.90;;;;;;5093624;28;20024;-64
2022/08/06 03:22:04;;;;;;;;;;;11.00;99.90;;;;;;5069604;28;20131;-64
2022/08/06 03:24:30;;;;;;;;;;;11.00;99.90;;;;;;5071159;28;19958;-65
2022/08/06 03:26:57;;;;;;;;;;;11.10;99.90;;;;;;5090618;28;19948;-66
2022/08/06 03:29:25;;;;;;;;;;;10.90;99.90;;;;;;5091321;28;19916;-65
2022/08/06 03:31:50;;;;;;;;;;;10.80;99.90;;;;;;5091276;28;20018;-64
2022/08/06 03:34:16;;;;;;;;;;;10.70;99.90;;;;;;5095102;28;20133;-65
2022/08/06 03:36:42;;;;;;;;;;;10.70;99.90;;;;;;5100380;28;20408;-64
2022/08/06 03:39:10;;;;;;;;;;;10.60;99.90;;;;;;5089508;28;21476;-65
2022/08/06 03:41:38;;;;;;;;;;;10.50;99.90;;;;;;5094186;28;20362;-65
2022/08/06 03:44:04;;;;;;;;;;;10.40;99.90;;;;;;5091301;28;20275;-65
2022/08/06 03:46:33;;;;;;;;;;;10.50;99.90;;;;;;5096375;28;20003;-64
2022/08/06 03:49:01;;;;;;;;;;;10.40;99.90;;;;;;5100183;28;19916;-66
2022/08/06 03:51:28;;;;;;;;;;;10.30;99.90;;;;;;5093743;28;19947;-65
2022/08/06 03:53:56;;;;;;;;;;;10.30;99.90;;;;;;5098643;28;19961;-65
2022/08/06 03:56:23;;;;;;;;;;;10.40;99.90;;;;;;5090257;28;20467;-65
2022/08/06 03:58:50;;;;;;;;;;;10.30;99.90;;;;;;5090971;28;19916;-65
2022/08/06 04:01:17;;;;;;;;;;;10.20;99.90;;;;;;5069173;28;20455;-64
2022/08/06 04:03:44;;;;;;;;;;;10.20;99.90;;;;;;5075682;28;20495;-65
2022/08/06 04:06:10;;;;;;;;;;;10.10;99.90;;;;;;5085397;28;20235;-65
2022/08/06 04:08:37;;;;;;;;;;;10.10;99.90;;;;;;5071640;28;21275;-66
2022/08/06 04:11:03;;;;;;;;;;;10.10;99.90;;;;;;5095552;28;20304;-66
2022/08/06 04:13:29;;;;;;;;;;;10.10;99.90;;;;;;5090475;28;19973;-65
2022/08/06 04:15:55;;;;;;;;;;;10.10;99.90;;;;;;5088937;28;20535;-65
2022/08/06 04:18:23;;;;;;;;;;;10.10;99.90;;;;;;5087740;28;19920;-65
2022/08/06 04:20:51;;;;;;;;;;;10.00;99.90;;;;;;5072884;28;20446;-65
2022/08/06 04:23:16;;;;;;;;;;;10.00;99.90;;;;;;5091564;28;19912;-65
2022/08/06 04:25:47;;;;;;;;;;;9.90;99.90;;;;;;5092591;28;19916;-66
2022/08/06 04:28:13;;;;;;;;;;;9.80;99.90;;;;;;5084527;28;19912;-66
2022/08/06 04:30:39;;;;;;;;;;;9.70;99.90;;;;;;5087386;28;20022;-65
2022/08/06 04:33:09;;;;;;;;;;;9.60;99.90;;;;;;5086191;28;20123;-65
2022/08/06 04:35:36;;;;;;;;;;;9.60;99.90;;;;;;5087963;28;19912;-65
2022/08/06 04:38:03;;;;;;;;;;;9.60;99.90;;;;;;5087498;28;20408;-65
2022/08/06 04:40:29;;;;;;;;;;;9.60;99.90;;;;;;5090103;28;20548;-64
2022/08/06 04:42:55;;;;;;;;;;;9.60;99.90;;;;;;5089240;28;20355;-65
2022/08/06 04:45:20;;;;;;;;;;;9.50;99.90;;;;;;5088542;28;20324;-65
2022/08/06 04:47:47;;;;;;;;;;;9.70;99.90;;;;;;5088286;28;19912;-65
2022/08/06 04:50:13;;;;;;;;;;;9.70;99.90;;;;;;5089297;28;19928;-65
2022/08/06 04:52:39;;;;;;;;;;;9.60;99.90;;;;;;5088656;28;19916;-65
2022/08/06 04:55:04;;;;;;;;;;;9.60;99.90;;;;;;5091904;28;19915;-65
2022/08/06 04:57:30;;;;;;;;;;;9.60;99.90;;;;;;5093185;28;19977;-65
2022/08/06 04:59:56;;;;;;;;;;;9.70;99.90;;;;;;5089373;28;19924;-65
2022/08/06 05:02:21;;;;;;;;;;;9.70;99.90;;;;;;5090065;28;19911;-65
2022/08/06 05:04:52;;;;;;;;;;;9.60;99.90;;;;;;5090997;28;19966;-65
2022/08/06 05:07:29;;;;;;;;;;;9.60;99.90;;;;;;5092542;28;19915;-65
2022/08/06 05:09:55;;;;;;;;;;;9.60;99.90;;;;;;5091549;28;20323;-65
2022/08/06 05:12:26;;;;;;;;;;;9.60;99.90;;;;;;5091992;28;19965;-64
2022/08/06 05:14:54;;;;;;;;;;;9.80;99.90;;;;;;5075774;28;19919;-65
2022/08/06 05:17:22;;;;;;;;;;;9.80;99.90;;;;;;5092506;28;20501;-65
2022/08/06 05:19:50;;;;;;;;;;;9.90;99.90;;;;;;5097890;28;19916;-65
2022/08/06 05:22:17;;;;;;;;;;;10.00;99.90;;;;;;5097116;28;20654;-65
2022/08/06 05:24:43;;;;;;;;;;;9.90;99.90;;;;;;5094023;28;19912;-65
2022/08/06 05:27:11;;;;;;;;;;;9.90;99.90;;;;;;5096899;28;19912;-65
2022/08/06 05:29:39;;;;;;;;;;;9.90;99.90;;;;;;5094212;28;19920;-65
2022/08/06 05:32:04;;;;;;;;;;;9.80;99.90;;;;;;5091907;28;19916;-65
2022/08/06 05:34:30;;;;;;;;;;;9.80;99.90;;;;;;5094973;28;20440;-65
2022/08/06 05:36:56;;;;;;;;;;;9.80;99.90;;;;;;5094263;28;19959;-66
2022/08/06 05:39:22;;;;;;;;;;;9.90;99.90;;;;;;5093408;28;20378;-65
2022/08/06 05:41:48;;;;;;;;;;;9.80;99.90;;;;;;5091461;28;20306;-65
2022/08/06 05:44:14;;;;;;;;;;;9.90;99.90;;;;;;5090891;28;19927;-65
2022/08/06 05:46:48;;;;;;;;;;;9.90;99.90;;;;;;5069403;28;19919;-64
2022/08/06 05:49:17;;;;;;;;;;;10.00;99.90;;;;;;5088161;28;19912;-65
2022/08/06 05:51:46;;;;;;;;;;;10.00;99.90;;;;;;5075046;28;19943;-63
2022/08/06 05:54:31;;;;;;;;;;;10.10;99.90;;;;;;5090267;28;19912;-65
2022/08/06 05:57:03;;;;;;;;;;;10.20;99.90;;;;;;5085236;28;20401;-64
2022/08/06 05:59:30;;;;;;;;;;;10.30;99.90;;;;;;5088708;28;20011;-63
2022/08/06 06:01:56;;;;;;;;;;;10.30;99.90;;;;;;5091015;28;19912;-64
2022/08/06 06:04:23;;;;;;;;;;;10.40;99.90;;;;;;5075202;28;19923;-63
2022/08/06 06:06:49;;;;;;;;;;;10.40;99.90;;;;;;5074257;28;19912;-65
2022/08/06 06:09:14;;;;;;;;;;;10.40;99.90;;;;;;5093192;28;19911;-64
2022/08/06 06:11:41;;;;;;;;;;;10.40;99.90;;;;;;5074517;28;20006;-65
2022/08/06 06:14:24;;;;;;;;;;;10.50;99.90;;;;;;5077755;28;19924;-65
2022/08/06 06:17:13;;;;;;;;;;;10.70;99.90;;;;;;5091134;28;20299;-65
2022/08/06 06:19:42;;;;;;;;;;;10.90;99.90;;;;;;5048826;28;19916;-65
2022/08/06 06:22:19;;;;;;;;;;;10.90;99.90;;;;;;5080993;28;20007;-67
2022/08/06 06:25:02;;;;;;;;;;;10.90;99.90;;;;;;5097920;28;19919;-66
2022/08/06 06:27:42;;;;;;;;;;;11.00;99.90;;;;;;5081952;28;19915;-65
2022/08/06 06:30:10;;;;;;;;;;;11.10;99.90;;;;;;5094609;28;19968;-65
2022/08/06 06:32:36;;;;;;;;;;;11.10;99.90;;;;;;5078556;28;19919;-64
2022/08/06 06:35:06;;;;;;;;;;;11.20;99.90;;;;;;5093375;28;19964;-64
2022/08/06 06:37:46;;;;;;;;;;;11.40;99.90;;;;;;5080547;28;20271;-64
2022/08/06 06:40:17;;;;;;;;;;;11.40;99.90;;;;;;5069834;28;19917;-65
2022/08/06 06:42:56;;;;;;;;;;;11.60;99.90;;;;;;5053373;28;19922;-66
2022/08/06 06:45:30;;;;;;;;;;;11.60;99.90;;;;;;5072375;28;19913;-65
2022/08/06 06:48:02;;;;;;;;;;;11.70;99.90;;;;;;5071295;28;19913;-65
2022/08/06 06:50:32;;;;;;;;;;;11.90;99.90;;;;;;5070657;28;19916;-65
2022/08/06 06:52:57;;;;;;;;;;;12.00;99.90;;;;;;5048050;28;20218;-64
2022/08/06 06:55:34;;;;;;;;;;;12.20;99.90;;;;;;5052077;28;20014;-65
2022/08/06 06:58:12;;;;;;;;;;;12.40;99.90;;;;;;5069433;28;19920;-66
2022/08/06 07:00:39;;;;;;;;;;;12.60;99.90;;;;;;5073247;28;19913;-65
2022/08/06 07:03:06;;;;;;;;;;;12.80;99.90;;;;;;5066743;28;19915;-64
2022/08/06 07:05:34;;;;;;;;;;;12.90;99.90;;;;;;5071430;28;19944;-64
2022/08/06 07:08:00;;;;;;;;;;;13.00;99.90;;;;;;5071347;28;19916;-65
2022/08/06 07:10:26;;;;;;;;;;;13.10;99.90;;;;;;5069043;28;19913;-66
2022/08/06 07:12:53;;;;;;;;;;;13.40;99.90;;;;;;5072067;28;19958;-65
2022/08/06 07:15:21;;;;;;;;;;;13.50;99.90;;;;;;5065897;28;19912;-64
2022/08/06 07:17:48;;;;;;;;;;;13.70;99.90;;;;;;5067027;28;20289;-64
2022/08/06 07:20:14;;;;;;;;;;;13.80;99.90;;;;;;5069440;28;20039;-64
2022/08/06 07:22:41;;;;;;;;;;;13.90;99.90;;;;;;5048148;28;19946;-65
2022/08/06 07:25:09;;;;;;;;;;;14.00;99.90;;;;;;5065542;28;19919;-65
2022/08/06 07:27:45;;;;;;;;;;;14.10;99.90;;;;;;5050370;28;19970;-64
2022/08/06 07:30:12;;;;;;;;;;;14.20;99.90;;;;;;5063428;28;19916;-66
2022/08/06 07:32:38;;;;;;;;;;;14.40;99.90;;;;;;5060582;28;19921;-65
2022/08/06 07:35:05;;;;;;;;;;;14.60;99.90;;;;;;5070698;28;19919;-65
2022/08/06 07:37:31;;;;;;;;;;;14.90;99.90;;;;;;5081751;28;19967;-65
2022/08/06 07:39:59;;;;;;;;;;;15.10;99.90;;;;;;5073568;28;20132;-65
2022/08/06 07:42:26;;;;;;;;;;;15.10;99.90;;;;;;5084570;28;19984;-65
2022/08/06 07:44:53;;;;;;;;;;;15.20;99.90;;;;;;5068589;28;19922;-64
2022/08/06 07:47:22;;;;;;;;;;;15.40;99.90;;;;;;5094270;28;20363;-66
2022/08/06 07:49:55;;;;;;;;;;;15.40;99.90;;;;;;5089433;28;20348;-65
2022/08/06 07:52:21;;;;;;;;;;;15.60;99.90;;;;;;5076913;28;19961;-65
2022/08/06 07:54:47;;;;;;;;;;;15.70;99.90;;;;;;5093929;28;19916;-65
2022/08/06 07:57:13;;;;;;;;;;;15.70;99.90;;;;;;5091277;28;20381;-64
2022/08/06 07:59:40;;;;;;;;;;;15.80;99.90;;;;;;5061202;28;19912;-64
2022/08/06 08:02:06;;;;;;;;;;;15.90;99.90;;;;;;5085784;28;19920;-65
2022/08/06 08:07:17;;;;;;;;;;;16.30;99.90;;;;;;5087650;28;19919;-64
2022/08/06 08:09:43;;;;;;;;;;;16.60;99.90;;;;;;5087474;28;20277;-68
2022/08/06 08:12:16;;;;;;;;;;;16.90;99.90;;;;;;5073816;28;20345;-67
2022/08/06 08:14:46;;;;;;;;;;;16.90;99.90;;;;;;5088776;28;20343;-66
2022/08/06 08:17:13;;;;;;;;;;;16.80;99.90;;;;;;5099506;28;19919;-66
2022/08/06 08:19:40;;;;;;;;;;;16.80;99.90;;;;;;5089640;28;20323;-66
2022/08/06 08:22:10;;;;;;;;;;;17.00;99.90;;;;;;5077262;28;20011;-66
2022/08/06 08:24:37;;;;;;;;;;;16.90;99.90;;;;;;5089808;28;20469;-66
2022/08/06 08:27:03;;;;;;;;;;;17.10;99.90;;;;;;5098024;28;19968;-66
2022/08/06 08:29:29;;;;;;;;;;;17.20;99.90;;;;;;5097855;28;20143;-66
2022/08/06 08:31:55;;;;;;;;;;;17.20;99.80;;;;;;5104794;28;19917;-66
2022/08/06 08:34:21;;;;;;;;;;;17.30;99.10;;;;;;5076719;28;19923;-63
2022/08/06 08:36:47;;;;;;;;;;;17.10;98.20;;;;;;5074095;28;19999;-65
2022/08/06 08:39:14;;;;;;;;;;;17.20;98.60;;;;;;5076984;28;19973;-65
2022/08/06 08:41:43;;;;;;;;;;;17.30;99.80;;;;;;5072482;28;20023;-65
2022/08/06 08:44:09;;;;;;;;;;;17.50;95.80;;;;;;5075492;28;19916;-65
2022/08/06 08:46:38;;;;;;;;;;;17.70;94.30;;;;;;5075756;28;20370;-66
2022/08/06 08:49:05;;;;;;;;;;;17.70;92.90;;;;;;5075028;28;19923;-66
2022/08/06 08:51:32;;;;;;;;;;;17.90;92.30;;;;;;5074350;28;20002;-66
2022/08/06 08:54:00;;;;;;;;;;;17.90;89.90;;;;;;5071438;28;19916;-66
2022/08/06 08:56:26;;;;;;;;;;;18.10;89.50;;;;;;5074142;28;20008;-66
2022/08/06 08:58:51;;;;;;;;;;;18.30;83.00;;;;;;5065215;28;20015;-66
2022/08/06 09:01:18;;;;;;;;;;;18.40;82.70;;;;;;5070148;28;19913;-66
2022/08/06 09:03:43;;;;;;;;;;;18.70;79.80;;;;;;5074268;28;19928;-66
2022/08/06 09:06:10;;;;;;;;;;;18.70;82.00;;;;;;5067350;28;19916;-66
2022/08/06 09:08:36;;;;;;;;;;;18.80;76.40;;;;;;5069779;28;19927;-67
2022/08/06 09:11:02;;;;;;;;;;;19.00;76.30;;;;;;5066816;28;19956;-67
2022/08/06 09:13:29;;;;;;;;;;;19.10;73.30;;;;;;5065110;28;19912;-65
2022/08/06 09:15:55;;;;;;;;;;;19.30;71.10;;;;;;5070807;28;19923;-67
2022/08/06 09:18:21;;;;;;;;;;;19.10;71.00;;;;;;5065359;28;19959;-67
2022/08/06 09:20:47;;;;;;;;;;;19.00;71.70;;;;;;5069946;28;19966;-67
2022/08/06 09:23:15;;;;;;;;;;;19.10;74.00;;;;;;5069669;28;20451;-68
2022/08/06 09:25:41;;;;;;;;;;;19.20;72.00;;;;;;5069879;28;20317;-67
2022/08/06 09:28:11;;;;;;;;;;;19.20;72.60;;;;;;5074126;28;19927;-66
2022/08/06 09:30:39;;;;;;;;;;;19.20;69.10;;;;;;5069063;28;19916;-66
2022/08/06 09:33:10;;;;;;;;;;;19.20;68.80;;;;;;5069045;28;19912;-67
2022/08/06 09:35:35;;;;;;;;;;;19.10;70.40;;;;;;5066895;28;19912;-67
2022/08/06 09:38:02;;;;;;;;;;;19.20;69.40;;;;;;5084510;28;19969;-67
2022/08/06 09:40:28;;;;;;;;;;;19.40;69.70;;;;;;5093017;28;19920;-66
2022/08/06 09:42:53;;;;;;;;;;;19.60;70.60;;;;;;5087788;28;19922;-66
2022/08/06 09:45:23;;;;;;;;;;;19.90;66.90;;;;;;5091033;28;20366;-67
2022/08/06 09:47:59;;;;;;;;;;;20.10;66.30;;;;;;5089437;28;19919;-66
2022/08/06 09:50:36;;;;;;;;;;;20.00;63.40;;;;;;5094291;28;19912;-67
2022/08/06 09:53:02;;;;;;;;;;;19.90;63.50;;;;;;5069014;28;19912;-67
2022/08/06 09:55:29;;;;;;;;;;;19.90;63.50;;;;;;5093531;28;19919;-65
2022/08/06 09:57:55;;;;;;;;;;;19.90;63.10;;;;;;5085523;28;20242;-65
2022/08/06 10:00:26;;;;;;;;;;;19.80;63.80;;;;;;5095309;28;19930;-66
2022/08/06 10:02:59;;;;;;;;;;;19.60;64.30;;;;;;5090227;28;20049;-66
2022/08/06 10:05:25;;;;;;;;;;;19.50;67.40;;;;;;5087685;28;19919;-66
2022/08/06 10:08:02;;;;;;;;;;;19.60;66.40;;;;;;5091792;28;20530;-66
2022/08/06 10:10:38;;;;;;;;;;;19.70;65.00;;;;;;5092372;28;20044;-66
2022/08/06 10:13:10;;;;;;;;;;;19.70;65.20;;;;;;5089657;28;19916;-65
2022/08/06 10:15:36;;;;;;;;;;;19.80;66.30;;;;;;5093346;28;19923;-65
2022/08/06 10:18:01;;;;;;;;;;;19.90;66.70;;;;;;5091772;28;20303;-66
2022/08/06 10:20:27;;;;;;;;;;;19.80;62.10;;;;;;5089640;28;20231;-66
2022/08/06 10:22:59;;;;;;;;;;;19.90;65.40;;;;;;5094880;28;20324;-65
2022/08/06 10:25:25;;;;;;;;;;;20.00;61.20;;;;;;5073169;28;19919;-66
2022/08/06 10:27:53;;;;;;;;;;;20.00;61.60;;;;;;5093753;28;20385;-66
2022/08/06 10:30:20;;;;;;;;;;;20.00;59.90;;;;;;5093979;28;20488;-67
2022/08/06 10:32:49;;;;;;;;;;;19.80;59.50;;;;;;5081812;28;20014;-66
2022/08/06 10:35:20;;;;;;;;;;;19.70;59.70;;;;;;5086057;28;19923;-66
2022/08/06 10:37:49;;;;;;;;;;;19.50;59.30;;;;;;5088350;28;19924;-65
2022/08/06 10:40:15;;;;;;;;;;;19.50;59.50;;;;;;5092005;28;19912;-66
2022/08/06 10:42:41;;;;;;;;;;;19.40;59.80;;;;;;5099091;28;19919;-67
2022/08/06 10:45:11;;;;;;;;;;;19.50;59.60;;;;;;5094084;28;19976;-66
2022/08/06 10:47:38;;;;;;;;;;;19.60;58.80;;;;;;5096975;28;19918;-65
2022/08/06 10:50:04;;;;;;;;;;;19.60;58.30;;;;;;5093351;28;19916;-67
2022/08/06 10:52:30;;;;;;;;;;;19.60;56.70;;;;;;5085305;28;20402;-66
2022/08/06 10:54:56;;;;;;;;;;;19.70;57.40;;;;;;5094321;28;20141;-65
2022/08/06 10:57:22;;;;;;;;;;;19.80;56.40;;;;;;5069585;28;20349;-66
2022/08/06 10:59:47;;;;;;;;;;;19.90;56.10;;;;;;5089290;28;19916;-66
2022/08/06 11:02:19;;;;;;;;;;;19.90;56.00;;;;;;5096419;28;19920;-65
2022/08/06 11:04:48;;;;;;;;;;;19.90;55.10;;;;;;5095347;28;20002;-66
2022/08/06 11:07:22;;;;;;;;;;;20.00;55.50;;;;;;5096996;28;19912;-65
2022/08/06 11:10:01;;;;;;;;;;;20.10;53.70;;;;;;5098588;28;20343;-67
2022/08/06 11:12:28;;;;;;;;;;;20.10;53.50;;;;;;5091864;28;19911;-67
2022/08/06 11:14:54;;;;;;;;;;;20.20;54.10;;;;;;5082794;28;20263;-66
2022/08/06 11:17:20;;;;;;;;;;;20.00;52.90;;;;;;5080941;28;20350;-67
2022/08/06 11:19:47;;;;;;;;;;;20.00;53.00;;;;;;5092260;28;19923;-67
2022/08/06 11:22:31;;;;;;;;;;;20.10;53.40;;;;;;5081582;28;20434;-67
2022/08/06 11:24:57;;;;;;;;;;;20.30;53.20;;;;;;5095090;28;19919;-66
2022/08/06 11:27:41;;;;;;;;;;;20.40;53.90;;;;;;5094694;28;19926;-66
2022/08/06 11:30:08;;;;;;;;;;;20.40;52.60;;;;;;5101097;28;20082;-66
2022/08/06 11:32:44;;;;;;;;;;;20.20;53.30;;;;;;5075364;28;19973;-65
2022/08/06 11:35:28;;;;;;;;;;;20.30;53.80;;;;;;5100294;28;20335;-67
2022/08/06 11:37:54;;;;;;;;;;;20.30;53.10;;;;;;5094377;28;20259;-65
2022/08/06 11:40:19;;;;;;;;;;;20.40;53.60;;;;;;5078430;28;19912;-66
2022/08/06 11:42:45;;;;;;;;;;;20.40;52.40;;;;;;5098015;28;19912;-67
2022/08/06 11:45:11;;;;;;;;;;;20.50;52.10;;;;;;5096692;28;19923;-66
2022/08/06 11:47:56;;;;;;;;;;;20.50;51.70;;;;;;5076854;28;19923;-66
2022/08/06 11:50:23;;;;;;;;;;;20.60;51.40;;;;;;5098896;28;19956;-66
2022/08/06 11:52:48;;;;;;;;;;;20.60;51.40;;;;;;5096209;28;20105;-67
2022/08/06 11:55:14;;;;;;;;;;;20.60;51.90;;;;;;5097999;28;20007;-66
2022/08/06 11:57:40;;;;;;;;;;;20.70;51.30;;;;;;5076485;28;20010;-65
2022/08/06 12:00:09;;;;;;;;;;;20.60;50.80;;;;;;5093993;28;20049;-65
2022/08/06 12:02:49;;;;;;;;;;;20.60;51.30;;;;;;5085254;28;20291;-65
2022/08/06 12:05:14;;;;;;;;;;;20.60;52.30;;;;;;5091890;28;19999;-66
2022/08/06 12:07:41;;;;;;;;;;;20.80;50.80;;;;;;5094799;28;20430;-65
2022/08/06 12:10:06;;;;;;;;;;;20.80;51.00;;;;;;5097312;28;19912;-66
2022/08/06 12:12:33;;;;;;;;;;;20.90;50.50;;;;;;5096579;28;19916;-65
2022/08/06 12:15:22;;;;;;;;;;;20.90;49.80;;;;;;5093479;28;19912;-66
2022/08/06 12:17:54;;;;;;;;;;;21.00;50.10;;;;;;5089154;28;19919;-65
2022/08/06 12:20:32;;;;;;;;;;;21.00;49.20;;;;;;5074728;28;19950;-66
2022/08/06 12:22:58;;;;;;;;;;;20.80;49.40;;;;;;5068238;28;19960;-66
2022/08/06 12:25:34;;;;;;;;;;;20.90;50.00;;;;;;5086542;28;19912;-65
2022/08/06 12:28:00;;;;;;;;;;;21.00;49.70;;;;;;5091668;28;19956;-66
2022/08/06 12:30:26;;;;;;;;;;;20.90;49.80;;;;;;5090329;28;19920;-65
2022/08/06 12:33:01;;;;;;;;;;;21.00;49.50;;;;;;5096615;28;19935;-65
2022/08/06 12:35:27;;;;;;;;;;;21.00;49.00;;;;;;5094719;28;20417;-65
2022/08/06 12:37:54;;;;;;;;;;;21.20;49.70;;;;;;5097282;28;19920;-66
2022/08/06 12:40:29;;;;;;;;;;;21.20;49.80;;;;;;5093308;28;20048;-65
2022/08/06 12:42:58;;;;;;;;;;;21.30;50.00;;;;;;5098076;28;19912;-66
2022/08/06 12:45:24;;;;;;;;;;;21.30;49.90;;;;;;5095484;28;19912;-66
2022/08/06 12:47:57;;;;;;;;;;;21.40;49.60;;;;;;5095812;28;20049;-66
2022/08/06 12:50:23;;;;;;;;;;;21.30;49.90;;;;;;5090477;28;20303;-66
2022/08/06 12:53:21;;;;;;;;;;;21.50;50.00;;;;;;5093117;28;19915;-66
2022/08/06 12:55:51;;;;;;;;;;;21.50;49.20;;;;;;5052909;28;20370;-65
2022/08/06 12:58:22;;;;;;;;;;;21.60;48.40;;;;;;5087669;28;19986;-66
2022/08/06 13:00:50;;;;;;;;;;;21.70;47.70;;;;;;5097316;28;20286;-66
2022/08/06 13:03:17;;;;;;;;;;;21.60;46.80;;;;;;5091504;28;20083;-66
2022/08/06 13:05:43;;;;;;;;;;;21.60;47.50;;;;;;5097356;28;20010;-67
2022/08/06 13:08:09;;;;;;;;;;;21.50;47.50;;;;;;5092835;28;19917;-66
2022/08/06 13:10:35;;;;;;;;;;;21.40;48.00;;;;;;5094259;28;19920;-66
2022/08/06 13:13:02;;;;;;;;;;;21.60;48.20;;;;;;5086219;28;19986;-67
2022/08/06 13:15:28;;;;;;;;;;;21.60;48.00;;;;;;5071378;28;19920;-67
2022/08/06 13:18:09;;;;;;;;;;;21.60;48.00;;;;;;5094679;28;19958;-66
2022/08/06 13:20:42;;;;;;;;;;;21.80;47.20;;;;;;5094520;28;19951;-67
2022/08/06 13:23:08;;;;;;;;;;;21.80;46.30;;;;;;5095577;28;19927;-68
2022/08/06 13:25:40;;;;;;;;;;;21.80;46.80;;;;;;5090307;28;20567;-65
2022/08/06 13:28:10;;;;;;;;;;;21.80;45.80;;;;;;5071321;28;19972;-67
2022/08/06 13:30:36;;;;;;;;;;;21.90;45.40;;;;;;5087035;28;19919;-67
2022/08/06 13:33:21;;;;;;;;;;;21.90;44.50;;;;;;5092237;28;20018;-67
2022/08/06 13:35:48;;;;;;;;;;;21.80;45.10;;;;;;5092027;28;19920;-65
2022/08/06 13:38:30;;;;;;;;;;;21.90;46.00;;;;;;5076001;28;19924;-65
2022/08/06 13:40:56;;;;;;;;;;;22.00;45.80;;;;;;5100099;28;19915;-66
2022/08/06 13:43:33;;;;;;;;;;;22.00;46.40;;;;;;5095172;28;19920;-66
2022/08/06 13:46:05;;;;;;;;;;;22.10;45.70;;;;;;5078646;28;20300;-68
2022/08/06 13:48:31;;;;;;;;;;;22.10;45.70;;;;;;5095303;28;19916;-67
2022/08/06 13:50:57;;;;;;;;;;;22.10;46.50;;;;;;5093058;28;20007;-68
2022/08/06 13:53:22;;;;;;;;;;;22.10;45.50;;;;;;5094769;28;20844;-67
2022/08/06 13:55:48;;;;;;;;;;;22.10;44.60;;;;;;5096361;28;19920;-66
2022/08/06 13:58:13;;;;;;;;;;;22.10;44.80;;;;;;5086696;28;20335;-66
2022/08/06 14:00:41;;;;;;;;;;;22.20;44.00;;;;;;5087525;28;21484;-67
2022/08/06 14:03:07;;;;;;;;;;;22.30;44.10;;;;;;5094794;28;20310;-67
2022/08/06 14:05:32;;;;;;;;;;;22.30;43.50;;;;;;5091197;28;19981;-66
2022/08/06 14:07:58;;;;;;;;;;;22.40;43.70;;;;;;5070838;28;20358;-66
2022/08/06 14:10:23;;;;;;;;;;;22.40;43.80;;;;;;5085806;28;20371;-66
2022/08/06 14:15:34;;;;;;;;;;;22.80;44.00;;;;;;5083539;28;19918;-67
2022/08/06 14:17:59;;;;;;;;;;;22.80;43.50;;;;;;5068180;28;19924;-67
2022/08/06 14:20:25;;;;;;;;;;;23.00;43.80;;;;;;5085762;28;19924;-68
2022/08/06 14:22:52;;;;;;;;;;;22.90;44.30;;;;;;5085659;28;19938;-67
2022/08/06 14:25:17;;;;;;;;;;;22.90;44.10;;;;;;5087825;28;19919;-66
2022/08/06 14:27:43;;;;;;;;;;;22.90;44.10;;;;;;5084452;28;19920;-67
2022/08/06 14:30:09;;;;;;;;;;;23.00;43.60;;;;;;5089082;28;20306;-66
2022/08/06 14:32:34;;;;;;;;;;;22.90;42.50;;;;;;5082282;28;20270;-65